sensor_id;sensor_type;location;lat;lon;timestamp;temperature;humidity
33793;DHT22;20105;48.764;9.178;2022-08-25T00:01:32;20.00;99.90
33793;DHT22;20105;48.764;9.178;2022-08-25T00:04:00;20.10;99.90
33793;DHT22;20105;48.764;9.178;2022-08-25T00:06:25;20.00;99.90
33793;DHT22;20105;48.764;9.178;2022-08-25T00:08:51;19.90;99.90
33793;DHT22;20105;48.764;9.178;2022-08-25T00:11:22;19.90;99.90
33793;DHT22;20105;48.764;9.178;2022-08-25T00:13:51;19.80;99.90
33793;DHT22;20105;48.764;9.178;2022-08-25T00:16:19;19.80;99.90
33793;DHT22;20105;48.764;9.178;2022-08-25T00:18:48;19.80;99.90
33793;DHT22;20105;48.764;9.178;2022-08-25T00:21:15;19.70;99.90
33793;DHT22;20105;48.764;9.178;2022-08-25T00:23:42;19.70;99.90
33793;DHT22;20105;48.764;9.178;2022-08-25T00:26:08;19.70;99.90
33793;DHT22;20105;48.764;9.178;2022-08-25T00:28:34;19.60;99.90
33793;DHT22;20105;48.764;9.178;2022-08-25T00:31:01;19.60;99.90
33793;DHT22;20105;48.764;9.178;2022-08-25T00:33:28;19.60;99.90
33793;DHT22;20105;48.764;9.178;2022-08-25T00:35:56;19.60;99.90
33793;DHT22;20105;48.764;9.178;2022-08-25T00:38:22;19.60;99.90
33793;DHT22;20105;48.764;9.178;2022-08-25T00:40:48;19.50;99.90
33793;DHT22;20105;48.764;9.178;2022-08-25T00:43:54;19.50;99.90
33793;DHT22;20105;48.764;9.178;2022-08-25T00:46:25;19.50;99.90
33793;DHT22;20105;48.764;9.178;2022-08-25T00:48:58;19.40;99.90
33793;DHT22;20105;48.764;9.178;2022-08-25T00:53:59;19.40;99.90
33793;DHT22;20105;48.764;9.178;2022-08-25T00:56:27;19.30;99.90
33793;DHT22;20105;48.764;9.178;2022-08-25T00:58:54;19.30;99.90
33793;DHT22;20105;48.764;9.178;2022-08-25T01:01:20;19.30;99.90
33793;DHT22;20105;48.764;9.178;2022-08-25T01:03:45;19.30;99.90
33793;DHT22;20105;48.764;9.178;2022-08-25T01:06:11;19.30;99.90
33793;DHT22;20105;48.764;9.178;2022-08-25T01:08:37;19.30;99.90
33793;DHT22;20105;48.764;9.178;2022-08-25T01:11:06;19.20;99.90
33793;DHT22;20105;48.764;9.178;2022-08-25T01:13:40;19.20;99.90
33793;DHT22;20105;48.764;9.178;2022-08-25T01:16:07;19.20;99.90
33793;DHT22;20105;48.764;9.178;2022-08-25T01:18:48;19.20;99.90
33793;DHT22;20105;48.764;9.178;2022-08-25T01:21:15;19.20;99.90
33793;DHT22;20105;48.764;9.178;2022-08-25T01:23:43;19.10;99.90
33793;DHT22;20105;48.764;9.178;2022-08-25T01:26:12;19.10;99.90
33793;DHT22;20105;48.764;9.178;2022-08-25T01:28:40;19.10;99.90
33793;DHT22;20105;48.764;9.178;2022-08-25T01:31:27;19.00;99.90
33793;DHT22;20105;48.764;9.178;2022-08-25T01:33:56;19.00;99.90
33793;DHT22;20105;48.764;9.178;2022-08-25T01:36:22;19.00;99.90
33793;DHT22;20105;48.764;9.178;2022-08-25T01:38:48;19.00;99.90
33793;DHT22;20105;48.764;9.178;2022-08-25T01:41:39;18.90;99.90
33793;DHT22;20105;48.764;9.178;2022-08-25T01:44:08;18.90;99.90
33793;DHT22;20105;48.764;9.178;2022-08-25T01:46:34;18.90;99.90
33793;DHT22;20105;48.764;9.178;2022-08-25T01:49:02;18.90;99.90
33793;DHT22;20105;48.764;9.178;2022-08-25T01:51:32;18.90;99.90
33793;DHT22;20105;48.764;9.178;2022-08-25T01:53:58;18.90;99.90
33793;DHT22;20105;48.764;9.178;2022-08-25T01:56:23;18.90;99.90
33793;DHT22;20105;48.764;9.178;2022-08-25T01:58:49;18.90;99.90
33793;DHT22;20105;48.764;9.178;2022-08-25T02:01:19;18.80;99.90
33793;DHT22;20105;48.764;9.178;2022-08-25T02:03:48;18.80;99.90
33793;DHT22;20105;48.764;9.178;2022-08-25T02:06:19;18.80;99.90
33793;DHT22;20105;48.764;9.178;2022-08-25T02:08:50;18.80;99.90
33793;DHT22;20105;48.764;9.178;2022-08-25T02:11:17;18.70;99.90
33793;DHT22;20105;48.764;9.178;2022-08-25T02:13:42;18.70;99.90
33793;DHT22;20105;48.764;9.178;2022-08-25T02:16:09;18.70;99.90
33793;DHT22;20105;48.764;9.178;2022-08-25T02:18:35;18.60;99.90
33793;DHT22;20105;48.764;9.178;2022-08-25T02:21:01;18.60;99.90
33793;DHT22;20105;48.764;9.178;2022-08-25T02:23:27;18.60;99.90
33793;DHT22;20105;48.764;9.178;2022-08-25T02:25:52;18.50;99.90
33793;DHT22;20105;48.764;9.178;2022-08-25T02:28:18;18.50;99.90
33793;DHT22;20105;48.764;9.178;2022-08-25T02:30:44;18.50;99.90
33793;DHT22;20105;48.764;9.178;2022-08-25T02:33:10;18.50;99.90
33793;DHT22;20105;48.764;9.178;2022-08-25T02:35:36;18.40;99.90
33793;DHT22;20105;48.764;9.178;2022-08-25T02:38:02;18.50;99.90
33793;DHT22;20105;48.764;9.178;2022-08-25T02:40:27;18.40;99.90
33793;DHT22;20105;48.764;9.178;2022-08-25T02:42:53;18.40;99.90
33793;DHT22;20105;48.764;9.178;2022-08-25T02:45:20;18.40;99.90
33793;DHT22;20105;48.764;9.178;2022-08-25T02:47:45;18.40;99.90
33793;DHT22;20105;48.764;9.178;2022-08-25T02:50:11;18.40;99.90
33793;DHT22;20105;48.764;9.178;2022-08-25T02:52:37;18.30;99.90
33793;DHT22;20105;48.764;9.178;2022-08-25T02:57:31;18.40;99.90
33793;DHT22;20105;48.764;9.178;2022-08-25T02:59:57;18.40;99.90
33793;DHT22;20105;48.764;9.178;2022-08-25T03:02:23;18.30;99.90
33793;DHT22;20105;48.764;9.178;2022-08-25T03:04:50;18.30;99.90
33793;DHT22;20105;48.764;9.178;2022-08-25T03:07:17;18.20;99.90
33793;DHT22;20105;48.764;9.178;2022-08-25T03:09:43;18.30;99.90
33793;DHT22;20105;48.764;9.178;2022-08-25T03:12:09;18.30;99.90
33793;DHT22;20105;48.764;9.178;2022-08-25T03:14:36;18.20;99.90
33793;DHT22;20105;48.764;9.178;2022-08-25T03:17:02;18.20;99.90
33793;DHT22;20105;48.764;9.178;2022-08-25T03:19:28;18.20;99.90
33793;DHT22;20105;48.764;9.178;2022-08-25T03:21:53;18.20;99.90
33793;DHT22;20105;48.764;9.178;2022-08-25T03:24:22;18.10;99.90
33793;DHT22;20105;48.764;9.178;2022-08-25T03:26:48;18.10;99.90
33793;DHT22;20105;48.764;9.178;2022-08-25T03:29:27;18.10;99.90
33793;DHT22;20105;48.764;9.178;2022-08-25T03:31:54;18.10;99.90
33793;DHT22;20105;48.764;9.178;2022-08-25T03:34:23;18.00;99.90
33793;DHT22;20105;48.764;9.178;2022-08-25T03:36:51;18.00;99.90
33793;DHT22;20105;48.764;9.178;2022-08-25T03:39:18;18.00;99.90
33793;DHT22;20105;48.764;9.178;2022-08-25T03:41:44;18.00;99.90
33793;DHT22;20105;48.764;9.178;2022-08-25T03:44:11;18.00;99.90
33793;DHT22;20105;48.764;9.178;2022-08-25T03:46:40;17.90;99.90
33793;DHT22;20105;48.764;9.178;2022-08-25T03:49:09;17.90;99.90
33793;DHT22;20105;48.764;9.178;2022-08-25T03:51:41;17.90;99.90
33793;DHT22;20105;48.764;9.178;2022-08-25T03:54:09;17.80;99.90
33793;DHT22;20105;48.764;9.178;2022-08-25T03:56:35;17.80;99.90
33793;DHT22;20105;48.764;9.178;2022-08-25T03:59:00;17.80;99.90
33793;DHT22;20105;48.764;9.178;2022-08-25T04:01:26;17.80;99.90
33793;DHT22;20105;48.764;9.178;2022-08-25T04:03:52;17.80;99.90
33793;DHT22;20105;48.764;9.178;2022-08-25T04:06:18;17.80;99.90
33793;DHT22;20105;48.764;9.178;2022-08-25T04:08:44;17.80;99.90
33793;DHT22;20105;48.764;9.178;2022-08-25T04:11:13;17.80;99.90
33793;DHT22;20105;48.764;9.178;2022-08-25T04:13:39;17.80;99.90
33793;DHT22;20105;48.764;9.178;2022-08-25T04:16:27;17.80;99.90
33793;DHT22;20105;48.764;9.178;2022-08-25T04:18:54;17.80;99.90
33793;DHT22;20105;48.764;9.178;2022-08-25T04:21:21;17.80;99.90
33793;DHT22;20105;48.764;9.178;2022-08-25T04:23:48;17.70;99.90
33793;DHT22;20105;48.764;9.178;2022-08-25T04:26:25;17.70;99.90
33793;DHT22;20105;48.764;9.178;2022-08-25T04:28:52;17.70;99.90
33793;DHT22;20105;48.764;9.178;2022-08-25T04:31:19;17.70;99.90
33793;DHT22;20105;48.764;9.178;2022-08-25T04:33:46;17.70;99.90
33793;DHT22;20105;48.764;9.178;2022-08-25T04:36:13;17.70;99.90
33793;DHT22;20105;48.764;9.178;2022-08-25T04:38:40;17.70;99.90
33793;DHT22;20105;48.764;9.178;2022-08-25T04:41:07;17.70;99.90
33793;DHT22;20105;48.764;9.178;2022-08-25T04:43:34;17.70;99.90
33793;DHT22;20105;48.764;9.178;2022-08-25T04:46:21;17.70;99.90
33793;DHT22;20105;48.764;9.178;2022-08-25T04:48:51;17.70;99.90
33793;DHT22;20105;48.764;9.178;2022-08-25T04:51:24;17.70;99.90
33793;DHT22;20105;48.764;9.178;2022-08-25T04:53:50;17.80;99.90
33793;DHT22;20105;48.764;9.178;2022-08-25T04:56:18;17.70;99.90
33793;DHT22;20105;48.764;9.178;2022-08-25T04:58:44;17.70;99.90
33793;DHT22;20105;48.764;9.178;2022-08-25T05:01:17;17.70;99.90
33793;DHT22;20105;48.764;9.178;2022-08-25T05:03:44;17.80;99.90
33793;DHT22;20105;48.764;9.178;2022-08-25T05:06:10;17.80;99.90
33793;DHT22;20105;48.764;9.178;2022-08-25T05:08:35;17.70;99.90
33793;DHT22;20105;48.764;9.178;2022-08-25T05:11:09;17.70;99.90
33793;DHT22;20105;48.764;9.178;2022-08-25T05:13:37;17.70;99.90
33793;DHT22;20105;48.764;9.178;2022-08-25T05:16:03;17.70;99.90
33793;DHT22;20105;48.764;9.178;2022-08-25T05:18:30;17.70;99.90
33793;DHT22;20105;48.764;9.178;2022-08-25T05:21:01;17.70;99.90
33793;DHT22;20105;48.764;9.178;2022-08-25T05:23:28;17.70;99.90
33793;DHT22;20105;48.764;9.178;2022-08-25T05:25:53;17.70;99.90
33793;DHT22;20105;48.764;9.178;2022-08-25T05:28:19;17.70;99.90
33793;DHT22;20105;48.764;9.178;2022-08-25T05:30:46;17.80;99.90
33793;DHT22;20105;48.764;9.178;2022-08-25T05:33:14;17.80;99.90
33793;DHT22;20105;48.764;9.178;2022-08-25T05:35:42;17.80;99.90
33793;DHT22;20105;48.764;9.178;2022-08-25T05:38:08;17.80;99.90
33793;DHT22;20105;48.764;9.178;2022-08-25T05:40:34;17.80;99.90
33793;DHT22;20105;48.764;9.178;2022-08-25T05:43:00;17.90;99.90
33793;DHT22;20105;48.764;9.178;2022-08-25T05:45:26;17.90;99.90
33793;DHT22;20105;48.764;9.178;2022-08-25T05:47:51;18.00;99.90
33793;DHT22;20105;48.764;9.178;2022-08-25T05:50:17;18.00;99.90
33793;DHT22;20105;48.764;9.178;2022-08-25T05:52:43;18.10;99.90
33793;DHT22;20105;48.764;9.178;2022-08-25T05:55:09;18.10;99.90
33793;DHT22;20105;48.764;9.178;2022-08-25T05:57:36;18.10;99.90
33793;DHT22;20105;48.764;9.178;2022-08-25T06:00:04;18.20;99.90
33793;DHT22;20105;48.764;9.178;2022-08-25T06:02:30;18.20;99.90
33793;DHT22;20105;48.764;9.178;2022-08-25T06:05:20;18.20;99.90
33793;DHT22;20105;48.764;9.178;2022-08-25T06:07:49;18.30;99.90
33793;DHT22;20105;48.764;9.178;2022-08-25T06:10:16;18.30;99.90
33793;DHT22;20105;48.764;9.178;2022-08-25T06:12:43;18.40;99.90
33793;DHT22;20105;48.764;9.178;2022-08-25T06:15:11;18.40;99.90
33793;DHT22;20105;48.764;9.178;2022-08-25T06:17:37;18.50;99.90
33793;DHT22;20105;48.764;9.178;2022-08-25T06:20:26;18.50;99.90
33793;DHT22;20105;48.764;9.178;2022-08-25T06:22:52;18.60;99.90
33793;DHT22;20105;48.764;9.178;2022-08-25T06:25:21;18.80;99.90
33793;DHT22;20105;48.764;9.178;2022-08-25T06:27:47;18.90;99.90
33793;DHT22;20105;48.764;9.178;2022-08-25T06:32:42;19.10;99.90
33793;DHT22;20105;48.764;9.178;2022-08-25T06:35:11;19.20;99.90
33793;DHT22;20105;48.764;9.178;2022-08-25T06:37:38;19.40;99.90
33793;DHT22;20105;48.764;9.178;2022-08-25T06:40:05;19.50;99.90
33793;DHT22;20105;48.764;9.178;2022-08-25T06:42:31;19.60;99.90
33793;DHT22;20105;48.764;9.178;2022-08-25T06:44:57;19.70;99.90
33793;DHT22;20105;48.764;9.178;2022-08-25T06:47:23;19.80;99.90
33793;DHT22;20105;48.764;9.178;2022-08-25T06:49:48;19.80;99.90
33793;DHT22;20105;48.764;9.178;2022-08-25T06:52:14;19.90;99.90
33793;DHT22;20105;48.764;9.178;2022-08-25T06:54:40;20.00;99.90
33793;DHT22;20105;48.764;9.178;2022-08-25T06:57:06;20.00;99.90
33793;DHT22;20105;48.764;9.178;2022-08-25T06:59:33;20.10;99.90
33793;DHT22;20105;48.764;9.178;2022-08-25T07:01:59;20.10;99.90
33793;DHT22;20105;48.764;9.178;2022-08-25T07:04:25;20.20;99.90
33793;DHT22;20105;48.764;9.178;2022-08-25T07:06:51;20.30;99.90
33793;DHT22;20105;48.764;9.178;2022-08-25T07:09:17;20.50;99.90
33793;DHT22;20105;48.764;9.178;2022-08-25T07:11:43;20.70;99.90
33793;DHT22;20105;48.764;9.178;2022-08-25T07:14:11;20.90;99.90
33793;DHT22;20105;48.764;9.178;2022-08-25T07:16:38;21.10;99.90
33793;DHT22;20105;48.764;9.178;2022-08-25T07:19:04;21.30;99.90
33793;DHT22;20105;48.764;9.178;2022-08-25T07:21:32;21.40;99.90
33793;DHT22;20105;48.764;9.178;2022-08-25T07:23:58;21.60;99.90
33793;DHT22;20105;48.764;9.178;2022-08-25T07:26:28;21.80;99.90
33793;DHT22;20105;48.764;9.178;2022-08-25T07:28:54;22.00;99.90
33793;DHT22;20105;48.764;9.178;2022-08-25T07:31:20;22.10;99.90
33793;DHT22;20105;48.764;9.178;2022-08-25T07:33:46;22.20;99.90
33793;DHT22;20105;48.764;9.178;2022-08-25T07:36:30;22.30;99.90
33793;DHT22;20105;48.764;9.178;2022-08-25T07:38:57;22.50;99.90
33793;DHT22;20105;48.764;9.178;2022-08-25T07:41:24;22.60;99.90
33793;DHT22;20105;48.764;9.178;2022-08-25T07:43:50;22.70;99.90
33793;DHT22;20105;48.764;9.178;2022-08-25T07:46:15;22.80;99.90
33793;DHT22;20105;48.764;9.178;2022-08-25T07:51:12;22.90;99.90
33793;DHT22;20105;48.764;9.178;2022-08-25T07:53:54;23.00;99.90
33793;DHT22;20105;48.764;9.178;2022-08-25T07:56:19;23.10;99.90
33793;DHT22;20105;48.764;9.178;2022-08-25T07:58:46;23.20;99.90
33793;DHT22;20105;48.764;9.178;2022-08-25T08:01:21;23.40;99.90
33793;DHT22;20105;48.764;9.178;2022-08-25T08:03:47;23.40;99.90
33793;DHT22;20105;48.764;9.178;2022-08-25T08:06:15;23.50;99.90
33793;DHT22;20105;48.764;9.178;2022-08-25T08:08:43;23.70;99.90
33793;DHT22;20105;48.764;9.178;2022-08-25T08:11:45;23.70;99.90
33793;DHT22;20105;48.764;9.178;2022-08-25T08:14:11;23.90;99.90
33793;DHT22;20105;48.764;9.178;2022-08-25T08:16:37;24.10;99.90
33793;DHT22;20105;48.764;9.178;2022-08-25T08:19:04;24.20;99.90
33793;DHT22;20105;48.764;9.178;2022-08-25T08:24:00;24.00;99.90
33793;DHT22;20105;48.764;9.178;2022-08-25T08:26:27;24.00;99.90
33793;DHT22;20105;48.764;9.178;2022-08-25T08:28:53;24.10;99.90
33793;DHT22;20105;48.764;9.178;2022-08-25T08:31:20;24.20;99.90
33793;DHT22;20105;48.764;9.178;2022-08-25T08:33:48;24.20;99.50
33793;DHT22;20105;48.764;9.178;2022-08-25T08:36:14;24.30;99.20
33793;DHT22;20105;48.764;9.178;2022-08-25T08:38:41;24.50;99.00
33793;DHT22;20105;48.764;9.178;2022-08-25T08:55:50;24.90;98.50
33793;DHT22;20105;48.764;9.178;2022-08-25T08:58:44;25.00;98.00
33793;DHT22;20105;48.764;9.178;2022-08-25T09:01:22;25.20;97.60
33793;DHT22;20105;48.764;9.178;2022-08-25T09:03:53;25.30;96.80
33793;DHT22;20105;48.764;9.178;2022-08-25T09:06:38;25.10;97.20
33793;DHT22;20105;48.764;9.178;2022-08-25T09:09:04;25.40;97.20
33793;DHT22;20105;48.764;9.178;2022-08-25T09:22:57;25.80;95.30
33793;DHT22;20105;48.764;9.178;2022-08-25T09:30:57;25.70;95.90
33793;DHT22;20105;48.764;9.178;2022-08-25T09:33:24;25.80;94.80
33793;DHT22;20105;48.764;9.178;2022-08-25T09:35:52;25.70;95.00
33793;DHT22;20105;48.764;9.178;2022-08-25T09:38:18;25.70;95.10
33793;DHT22;20105;48.764;9.178;2022-08-25T09:40:50;26.00;95.20
33793;DHT22;20105;48.764;9.178;2022-08-25T09:46:12;26.00;94.70
33793;DHT22;20105;48.764;9.178;2022-08-25T09:48:49;26.00;94.60
33793;DHT22;20105;48.764;9.178;2022-08-25T09:51:31;26.20;93.70
33793;DHT22;20105;48.764;9.178;2022-08-25T09:59:30;26.30;93.70
33793;DHT22;20105;48.764;9.178;2022-08-25T10:02:00;26.50;94.00
33793;DHT22;20105;48.764;9.178;2022-08-25T10:04:45;26.60;93.60
33793;DHT22;20105;48.764;9.178;2022-08-25T10:07:25;26.50;93.20
33793;DHT22;20105;48.764;9.178;2022-08-25T10:09:56;26.40;93.40
33793;DHT22;20105;48.764;9.178;2022-08-25T10:12:45;26.60;93.40
33793;DHT22;20105;48.764;9.178;2022-08-25T10:15:24;26.90;92.70
33793;DHT22;20105;48.764;9.178;2022-08-25T10:17:51;27.00;92.30
33793;DHT22;20105;48.764;9.178;2022-08-25T10:20:20;27.20;91.80
33793;DHT22;20105;48.764;9.178;2022-08-25T10:22:48;27.30;91.20
33793;DHT22;20105;48.764;9.178;2022-08-25T10:25:26;27.60;90.50
33793;DHT22;20105;48.764;9.178;2022-08-25T10:28:14;27.40;91.10
33793;DHT22;20105;48.764;9.178;2022-08-25T10:39:40;27.10;90.10
33793;DHT22;20105;48.764;9.178;2022-08-25T10:56:30;27.20;90.40
33793;DHT22;20105;48.764;9.178;2022-08-25T11:04:43;28.10;87.70
33793;DHT22;20105;48.764;9.178;2022-08-25T11:07:11;27.90;88.00
33793;DHT22;20105;48.764;9.178;2022-08-25T11:09:46;28.10;88.20
33793;DHT22;20105;48.764;9.178;2022-08-25T11:14:58;28.50;86.80
33793;DHT22;20105;48.764;9.178;2022-08-25T11:19:56;28.50;87.30
33793;DHT22;20105;48.764;9.178;2022-08-25T11:22:25;28.80;86.70
33793;DHT22;20105;48.764;9.178;2022-08-25T11:25:18;28.80;86.40
33793;DHT22;20105;48.764;9.178;2022-08-25T11:30:30;28.80;84.70
33793;DHT22;20105;48.764;9.178;2022-08-25T11:32:56;28.60;85.10
33793;DHT22;20105;48.764;9.178;2022-08-25T11:35:52;28.70;85.90
33793;DHT22;20105;48.764;9.178;2022-08-25T11:51:59;29.10;85.00
33793;DHT22;20105;48.764;9.178;2022-08-25T11:54:36;29.30;84.30
33793;DHT22;20105;48.764;9.178;2022-08-25T11:57:16;29.20;84.00
33793;DHT22;20105;48.764;9.178;2022-08-25T12:02:32;28.80;83.70
33793;DHT22;20105;48.764;9.178;2022-08-25T12:04:59;28.80;84.40
33793;DHT22;20105;48.764;9.178;2022-08-25T12:07:28;29.10;84.10
33793;DHT22;20105;48.764;9.178;2022-08-25T12:18:16;29.40;83.70
33793;DHT22;20105;48.764;9.178;2022-08-25T12:23:44;28.70;84.30
33793;DHT22;20105;48.764;9.178;2022-08-25T12:37:24;29.00;84.50
33793;DHT22;20105;48.764;9.178;2022-08-25T12:47:42;28.60;87.60
33793;DHT22;20105;48.764;9.178;2022-08-25T12:50:38;28.80;86.60
33793;DHT22;20105;48.764;9.178;2022-08-25T12:53:14;29.00;85.60
33793;DHT22;20105;48.764;9.178;2022-08-25T12:55:56;28.90;85.60
33793;DHT22;20105;48.764;9.178;2022-08-25T12:58:24;29.10;84.10
33793;DHT22;20105;48.764;9.178;2022-08-25T13:06:58;28.80;85.60
33793;DHT22;20105;48.764;9.178;2022-08-25T13:12:50;29.00;84.60
33793;DHT22;20105;48.764;9.178;2022-08-25T13:15:35;29.50;83.70
33793;DHT22;20105;48.764;9.178;2022-08-25T13:23:21;28.90;84.70
33793;DHT22;20105;48.764;9.178;2022-08-25T13:25:51;28.90;85.40
33793;DHT22;20105;48.764;9.178;2022-08-25T13:28:31;28.80;84.80
33793;DHT22;20105;48.764;9.178;2022-08-25T13:31:03;28.60;85.30
33793;DHT22;20105;48.764;9.178;2022-08-25T13:33:29;28.30;85.60
33793;DHT22;20105;48.764;9.178;2022-08-25T13:35:56;28.00;85.90
33793;DHT22;20105;48.764;9.178;2022-08-25T13:38:42;28.00;85.90
33793;DHT22;20105;48.764;9.178;2022-08-25T13:41:08;28.40;84.60
33793;DHT22;20105;48.764;9.178;2022-08-25T13:43:36;28.50;83.70
33793;DHT22;20105;48.764;9.178;2022-08-25T13:46:03;28.50;84.60
33793;DHT22;20105;48.764;9.178;2022-08-25T13:48:38;28.40;84.90
33793;DHT22;20105;48.764;9.178;2022-08-25T13:51:25;28.20;85.10
33793;DHT22;20105;48.764;9.178;2022-08-25T13:53:57;28.10;86.30
33793;DHT22;20105;48.764;9.178;2022-08-25T13:56:32;28.00;86.80
33793;DHT22;20105;48.764;9.178;2022-08-25T13:58:59;28.40;86.90
33793;DHT22;20105;48.764;9.178;2022-08-25T14:01:43;29.00;85.50
33793;DHT22;20105;48.764;9.178;2022-08-25T14:12:33;29.80;84.30
33793;DHT22;20105;48.764;9.178;2022-08-25T14:18:02;30.30;83.10
33793;DHT22;20105;48.764;9.178;2022-08-25T14:20:29;30.40;83.00
33793;DHT22;20105;48.764;9.178;2022-08-25T14:22:59;30.20;82.40
33793;DHT22;20105;48.764;9.178;2022-08-25T14:25:27;30.30;82.60
33793;DHT22;20105;48.764;9.178;2022-08-25T14:27:58;30.80;82.00
33793;DHT22;20105;48.764;9.178;2022-08-25T14:30:23;30.80;81.50
33793;DHT22;20105;48.764;9.178;2022-08-25T14:32:49;30.70;81.60
33793;DHT22;20105;48.764;9.178;2022-08-25T14:35:16;30.60;82.40
33793;DHT22;20105;48.764;9.178;2022-08-25T14:37:43;30.20;82.70
33793;DHT22;20105;48.764;9.178;2022-08-25T14:40:10;29.90;83.50
33793;DHT22;20105;48.764;9.178;2022-08-25T14:42:38;29.60;83.70
33793;DHT22;20105;48.764;9.178;2022-08-25T14:45:04;29.40;84.30
33793;DHT22;20105;48.764;9.178;2022-08-25T14:47:31;29.20;84.80
33793;DHT22;20105;48.764;9.178;2022-08-25T14:49:57;29.20;84.60
33793;DHT22;20105;48.764;9.178;2022-08-25T14:52:27;29.00;85.00
33793;DHT22;20105;48.764;9.178;2022-08-25T14:54:54;28.80;85.30
33793;DHT22;20105;48.764;9.178;2022-08-25T14:57:25;28.80;85.40
33793;DHT22;20105;48.764;9.178;2022-08-25T14:59:51;28.80;85.20
33793;DHT22;20105;48.764;9.178;2022-08-25T15:02:18;29.30;84.90
33793;DHT22;20105;48.764;9.178;2022-08-25T15:04:59;30.00;82.80
33793;DHT22;20105;48.764;9.178;2022-08-25T15:07:28;30.00;82.50
33793;DHT22;20105;48.764;9.178;2022-08-25T15:10:14;29.80;83.00
33793;DHT22;20105;48.764;9.178;2022-08-25T15:12:40;29.60;83.10
33793;DHT22;20105;48.764;9.178;2022-08-25T15:15:06;29.40;83.50
33793;DHT22;20105;48.764;9.178;2022-08-25T15:17:31;29.30;84.20
33793;DHT22;20105;48.764;9.178;2022-08-25T15:19:57;29.10;84.60
33793;DHT22;20105;48.764;9.178;2022-08-25T15:22:22;28.90;85.20
33793;DHT22;20105;48.764;9.178;2022-08-25T15:24:48;28.80;85.70
33793;DHT22;20105;48.764;9.178;2022-08-25T15:27:17;28.80;85.80
33793;DHT22;20105;48.764;9.178;2022-08-25T15:29:43;28.80;86.10
33793;DHT22;20105;48.764;9.178;2022-08-25T15:32:08;28.70;86.00
33793;DHT22;20105;48.764;9.178;2022-08-25T15:34:34;28.60;86.10
33793;DHT22;20105;48.764;9.178;2022-08-25T15:37:06;28.50;86.40
33793;DHT22;20105;48.764;9.178;2022-08-25T15:39:33;28.50;86.50
33793;DHT22;20105;48.764;9.178;2022-08-25T15:41:58;28.50;86.90
33793;DHT22;20105;48.764;9.178;2022-08-25T15:44:24;28.60;86.80
33793;DHT22;20105;48.764;9.178;2022-08-25T15:46:51;28.80;86.10
33793;DHT22;20105;48.764;9.178;2022-08-25T15:49:18;29.20;86.10
33793;DHT22;20105;48.764;9.178;2022-08-25T15:51:43;29.60;84.40
33793;DHT22;20105;48.764;9.178;2022-08-25T15:54:10;29.60;83.90
33793;DHT22;20105;48.764;9.178;2022-08-25T15:56:35;29.10;85.00
33793;DHT22;20105;48.764;9.178;2022-08-25T15:59:03;28.80;85.20
33793;DHT22;20105;48.764;9.178;2022-08-25T16:03:55;28.40;86.30
33793;DHT22;20105;48.764;9.178;2022-08-25T16:06:22;28.20;86.90
33793;DHT22;20105;48.764;9.178;2022-08-25T16:08:48;28.10;86.80
33793;DHT22;20105;48.764;9.178;2022-08-25T16:11:21;28.00;87.20
33793;DHT22;20105;48.764;9.178;2022-08-25T16:13:47;27.90;87.40
33793;DHT22;20105;48.764;9.178;2022-08-25T16:16:14;27.80;87.60
33793;DHT22;20105;48.764;9.178;2022-08-25T16:18:41;27.80;87.90
33793;DHT22;20105;48.764;9.178;2022-08-25T16:21:09;27.80;87.70
33793;DHT22;20105;48.764;9.178;2022-08-25T16:23:35;27.70;87.80
33793;DHT22;20105;48.764;9.178;2022-08-25T16:26:03;27.70;88.80
33793;DHT22;20105;48.764;9.178;2022-08-25T16:28:29;27.70;89.40
33793;DHT22;20105;48.764;9.178;2022-08-25T16:30:55;27.60;89.90
33793;DHT22;20105;48.764;9.178;2022-08-25T16:33:20;27.60;90.10
33793;DHT22;20105;48.764;9.178;2022-08-25T16:35:46;27.50;90.80
33793;DHT22;20105;48.764;9.178;2022-08-25T16:38:12;27.50;90.10
33793;DHT22;20105;48.764;9.178;2022-08-25T16:40:41;27.50;89.80
33793;DHT22;20105;48.764;9.178;2022-08-25T16:43:08;27.50;89.80
33793;DHT22;20105;48.764;9.178;2022-08-25T16:45:33;27.50;89.60
33793;DHT22;20105;48.764;9.178;2022-08-25T16:47:59;27.60;90.70
33793;DHT22;20105;48.764;9.178;2022-08-25T16:50:25;27.80;89.10
33793;DHT22;20105;48.764;9.178;2022-08-25T16:52:51;27.90;88.70
33793;DHT22;20105;48.764;9.178;2022-08-25T16:55:35;28.20;86.70
33793;DHT22;20105;48.764;9.178;2022-08-25T16:58:01;28.30;87.00
33793;DHT22;20105;48.764;9.178;2022-08-25T17:00:28;28.40;87.30
33793;DHT22;20105;48.764;9.178;2022-08-25T17:02:58;28.50;86.50
33793;DHT22;20105;48.764;9.178;2022-08-25T17:05:26;28.60;86.40
33793;DHT22;20105;48.764;9.178;2022-08-25T17:07:52;28.60;86.50
33793;DHT22;20105;48.764;9.178;2022-08-25T17:10:38;28.60;86.50
33793;DHT22;20105;48.764;9.178;2022-08-25T17:13:05;28.60;86.50
33793;DHT22;20105;48.764;9.178;2022-08-25T17:15:31;28.50;86.30
33793;DHT22;20105;48.764;9.178;2022-08-25T17:17:56;28.50;86.60
33793;DHT22;20105;48.764;9.178;2022-08-25T17:20:22;28.40;86.90
33793;DHT22;20105;48.764;9.178;2022-08-25T17:22:48;28.30;86.80
33793;DHT22;20105;48.764;9.178;2022-08-25T17:25:15;28.30;86.70
33793;DHT22;20105;48.764;9.178;2022-08-25T17:27:40;28.20;86.90
33793;DHT22;20105;48.764;9.178;2022-08-25T17:30:07;28.20;86.90
33793;DHT22;20105;48.764;9.178;2022-08-25T17:32:32;28.10;87.30
33793;DHT22;20105;48.764;9.178;2022-08-25T17:34:58;28.00;87.70
33793;DHT22;20105;48.764;9.178;2022-08-25T17:37:24;28.00;87.70
33793;DHT22;20105;48.764;9.178;2022-08-25T17:39:51;27.90;88.30
33793;DHT22;20105;48.764;9.178;2022-08-25T17:42:16;27.80;88.40
33793;DHT22;20105;48.764;9.178;2022-08-25T17:44:43;27.60;88.60
33793;DHT22;20105;48.764;9.178;2022-08-25T17:47:09;27.60;88.70
33793;DHT22;20105;48.764;9.178;2022-08-25T17:49:35;27.40;88.90
33793;DHT22;20105;48.764;9.178;2022-08-25T17:52:00;27.30;89.10
33793;DHT22;20105;48.764;9.178;2022-08-25T17:54:26;27.20;89.50
33793;DHT22;20105;48.764;9.178;2022-08-25T17:56:52;27.00;89.80
33793;DHT22;20105;48.764;9.178;2022-08-25T17:59:18;26.90;90.10
33793;DHT22;20105;48.764;9.178;2022-08-25T18:01:44;26.80;90.50
33793;DHT22;20105;48.764;9.178;2022-08-25T18:04:10;26.70;90.60
33793;DHT22;20105;48.764;9.178;2022-08-25T18:06:36;26.50;91.00
33793;DHT22;20105;48.764;9.178;2022-08-25T18:09:02;26.50;91.30
33793;DHT22;20105;48.764;9.178;2022-08-25T18:11:29;26.30;91.30
33793;DHT22;20105;48.764;9.178;2022-08-25T18:13:56;26.10;91.60
33793;DHT22;20105;48.764;9.178;2022-08-25T18:16:23;26.00;92.20
33793;DHT22;20105;48.764;9.178;2022-08-25T18:18:49;25.90;92.30
33793;DHT22;20105;48.764;9.178;2022-08-25T18:21:16;25.80;92.50
33793;DHT22;20105;48.764;9.178;2022-08-25T18:23:42;25.70;92.60
33793;DHT22;20105;48.764;9.178;2022-08-25T18:26:09;25.60;92.90